Gingin, Western Australia

6:58 PM AWST on May 26, 2015 (GMT +0800)
Muchea | | Change Station
CLOSE
Current Station
Personal Weather Station
Location: Muchea, WESTERN AUSTRALIA
Elevation: 371 ft
Nearby Weather Stations

Elev 371 ft 31.53 °S, 116.02 °E | Updated 33 seconds ago

Scattered Clouds
Scattered Clouds
57.9 °F
Feels Like 57.9 °F
N
0.0
Wind Variable Wind from North
Gusts 0.0 mph

Today
High -- | Low -- °F
--% Chance of Precip.
Yesterday
High -- | Low -- °F
Precip. -- in
7:03 AM 5:23 PM
First Quarter, 57% visible
Pressure 30.18 in
Visibility 6.2 miles
Clouds Few 2800 ft
Scattered Clouds 6500 ft
Dew Point 51 °F
Humidity 79%
Rainfall 0.00 in
Snow Depth Not available.
UV 0 out of 12
Pollen Not available.
Air Quality Not available.
Flu Activity Not available.
METAR YPPH 261030Z 23006KT 9999 FEW028 SCT065 16/11 Q1022

More Conditions Fewer Conditions

Pressure 30.18 in
Visibility 6.2 miles
Clouds Few 2800 ft
Scattered Clouds 6500 ft
Dew Point 51 °F
Humidity 79%
Rainfall 0.00 in
Snow Depth Not available.
UV 0 out of 12
Pollen Not available.
Air Quality Not available.
Flu Activity Not available.
METAR YPPH 261030Z 23006KT 9999 FEW028 SCT065 16/11 Q1022

More Conditions Fewer Conditions

10-Day Weather Forecast

Almanac

Astronomy

May. 26, 2015 Rise Set
Actual Time
Civil Twilight
Nautical Twilight
Astronomical Twilight
Moon
Length of Visible Light
Length of Day
Tomorrow will be .
, % of the Moon is Illuminated

Today's Extremes

Country Highs Country Lows

Community

WunderPhotos

Upload Photos

1,824,305 photos uploaded!

WunderBlogs® & News

Nearby

Air Quality

  Air Quality AQ Index Pollutant
Not available.

Snow Depth

Station Depth Elevation

Earthquake Activity

City Distance Mag. Time & Date
Minimum magnitude displayed is 2.5.

Coastal Water Temperatures

Place Temperature

Stations

Nearby Weather Stations

Station Location Temp. Windchill Dew Point Humidity Wind Precip. Elev Updated Type